createdAt,value
2019-05-06T00:00:06.818Z,2.06
2019-05-06T00:01:06.819Z,2.07
2019-05-06T00:02:06.828Z,2.04
2019-05-06T00:03:06.806Z,2.04
2019-05-06T00:04:06.786Z,1.94
2019-05-06T00:05:06.767Z,1.91
2019-05-06T00:06:06.766Z,1.85
2019-05-06T00:07:06.765Z,1.84
2019-05-06T00:08:06.729Z,1.81
2019-05-06T00:09:06.720Z,1.81
2019-05-06T00:10:06.707Z,1.80
2019-05-06T00:11:06.694Z,1.81
2019-05-06T00:12:06.726Z,1.81
2019-05-06T00:13:06.679Z,1.80
2019-05-06T00:14:06.681Z,1.78
2019-05-06T00:15:06.647Z,1.81
2019-05-06T00:16:06.646Z,1.81
2019-05-06T00:17:06.669Z,1.80
2019-05-06T00:18:06.632Z,1.78
2019-05-06T00:19:06.628Z,1.77
2019-05-06T00:20:06.605Z,1.77
2019-05-06T00:21:06.597Z,1.74
2019-05-06T00:22:06.587Z,1.71
2019-05-06T00:23:06.596Z,1.71
2019-05-06T00:24:06.567Z,1.76
2019-05-06T00:25:06.556Z,1.78
2019-05-06T00:26:06.566Z,1.84
2019-05-06T00:27:06.525Z,1.87
2019-05-06T00:28:06.525Z,1.87
2019-05-06T00:29:06.503Z,1.88
2019-05-06T00:30:06.516Z,1.91
2019-05-06T00:31:12.637Z,1.88
2019-05-06T00:32:07.476Z,1.87
2019-05-06T00:33:06.454Z,1.87
2019-05-06T00:34:06.454Z,1.84
2019-05-06T00:35:06.447Z,1.80
2019-05-06T00:36:06.436Z,1.80
2019-05-06T00:37:06.434Z,1.76
2019-05-06T00:38:06.394Z,1.73
2019-05-06T00:39:06.404Z,1.71
2019-05-06T00:40:06.384Z,1.70
2019-05-06T00:41:06.363Z,1.70
2019-05-06T00:42:06.391Z,1.68
2019-05-06T00:43:06.345Z,1.70
2019-05-06T00:44:06.345Z,1.70
2019-05-06T00:45:06.322Z,1.67
2019-05-06T00:46:06.338Z,1.67
2019-05-06T00:47:06.311Z,1.68
2019-05-06T00:48:06.312Z,1.59
2019-05-06T00:49:06.293Z,1.59
2019-05-06T00:50:06.277Z,1.55
2019-05-06T00:51:06.273Z,1.53
2019-05-06T00:52:06.252Z,1.52
2019-05-06T00:53:06.262Z,1.49
2019-05-06T00:54:06.236Z,1.45
2019-05-06T00:55:06.213Z,1.49
2019-05-06T00:56:06.209Z,1.45
2019-05-06T00:57:06.209Z,1.45
2019-05-06T00:58:06.201Z,1.42
2019-05-06T00:59:06.183Z,1.48
2019-05-06T01:00:06.159Z,1.45
2019-05-06T01:01:06.169Z,1.49
2019-05-06T01:02:06.153Z,1.45
2019-05-06T01:03:06.161Z,1.41
2019-05-06T01:04:06.135Z,1.40
2019-05-06T01:05:06.110Z,1.40
2019-05-06T01:06:06.098Z,1.37
2019-05-06T01:07:06.088Z,1.40
2019-05-06T01:08:06.096Z,1.40
2019-05-06T01:09:06.072Z,1.40
2019-05-06T01:10:06.076Z,1.38
2019-05-06T01:11:06.051Z,1.35
2019-05-06T01:12:06.054Z,1.35
2019-05-06T01:13:06.037Z,1.35
2019-05-06T01:14:06.021Z,1.31
2019-05-06T01:15:06.008Z,1.28
2019-05-06T01:16:05.998Z,1.31
2019-05-06T01:17:05.999Z,1.31
2019-05-06T01:18:05.979Z,1.30
2019-05-06T01:19:05.959Z,1.24
2019-05-06T01:20:05.959Z,1.20
2019-05-06T01:21:05.943Z,1.20
2019-05-06T01:22:05.944Z,1.17
2019-05-06T01:23:05.914Z,1.17
2019-05-06T01:24:05.921Z,1.19
2019-05-06T01:25:05.897Z,1.19
2019-05-06T01:26:05.883Z,1.17
2019-05-06T01:27:05.864Z,1.17
2019-05-06T01:28:05.858Z,1.22
2019-05-06T01:29:05.878Z,1.26
2019-05-06T01:30:05.838Z,1.34
2019-05-06T01:31:05.837Z,1.38
2019-05-06T01:32:05.818Z,1.45
2019-05-06T01:33:05.826Z,1.53
2019-05-06T01:34:05.817Z,1.58
2019-05-06T01:35:05.788Z,1.56
2019-05-06T01:36:05.778Z,1.52
2019-05-06T01:37:05.788Z,1.45
2019-05-06T01:38:05.758Z,1.42
2019-05-06T01:39:05.741Z,1.41
2019-05-06T01:40:05.743Z,1.40
2019-05-06T01:41:05.717Z,1.42
2019-05-06T01:42:05.724Z,1.41
2019-05-06T01:43:05.694Z,1.37
2019-05-06T01:44:05.691Z,1.30
2019-05-06T01:45:05.664Z,1.31
2019-05-06T01:46:05.690Z,1.26
2019-05-06T01:47:05.656Z,1.19
2019-05-06T01:48:05.645Z,1.14
2019-05-06T01:49:05.634Z,1.12
2019-05-06T01:50:05.633Z,1.05
2019-05-06T01:51:05.632Z,1.06
2019-05-06T01:52:05.610Z,1.06
2019-05-06T01:53:05.583Z,1.10
2019-05-06T01:54:05.578Z,1.10
2019-05-06T01:55:05.560Z,1.08
2019-05-06T01:56:05.613Z,1.05
2019-05-06T01:57:05.563Z,1.08
2019-05-06T01:58:05.534Z,1.05
2019-05-06T01:59:05.522Z,1.04
2019-05-06T02:00:05.513Z,1.02
2019-05-06T02:01:05.512Z,1.02
2019-05-06T02:02:05.499Z,0.99
2019-05-06T02:03:05.482Z,0.96
2019-05-06T02:04:05.463Z,0.95
2019-05-06T02:05:05.459Z,0.95
2019-05-06T02:06:05.441Z,0.88
2019-05-06T02:07:05.472Z,0.87
2019-05-06T02:08:05.419Z,0.86
2019-05-06T02:09:05.418Z,0.84
2019-05-06T02:10:05.400Z,0.87
2019-05-06T02:11:05.393Z,0.88
2019-05-06T02:12:05.381Z,0.94
2019-05-06T02:13:05.400Z,0.96
2019-05-06T02:14:05.360Z,0.98
2019-05-06T02:15:05.360Z,1.02
2019-05-06T02:16:05.329Z,1.17
2019-05-06T02:17:05.360Z,1.26
2019-05-06T02:18:05.322Z,1.35
2019-05-06T02:19:05.318Z,1.41
2019-05-06T02:20:05.287Z,1.48
2019-05-06T02:21:05.575Z,1.48
2019-05-06T02:22:05.287Z,1.48
2019-05-06T02:23:05.279Z,1.50
2019-05-06T02:24:05.267Z,1.49
2019-05-06T02:25:05.237Z,1.50
2019-05-06T02:26:05.228Z,1.52
2019-05-06T02:27:05.220Z,1.49
2019-05-06T02:28:05.204Z,1.44
2019-05-06T02:29:05.219Z,1.44
2019-05-06T02:30:05.689Z,1.42
2019-05-06T02:31:05.428Z,1.42
2019-05-06T02:32:17.307Z,1.40
2019-05-06T02:33:06.152Z,1.41
2019-05-06T02:34:05.357Z,1.44
2019-05-06T02:35:05.454Z,1.48
2019-05-06T02:36:06.540Z,1.50
2019-05-06T02:37:06.350Z,1.55
2019-05-06T02:38:05.218Z,1.60
2019-05-06T02:39:05.088Z,1.67
2019-05-06T02:40:05.069Z,1.74
2019-05-06T02:41:05.070Z,1.77
2019-05-06T02:42:05.078Z,1.80
2019-05-06T02:43:05.045Z,1.81
2019-05-06T02:44:05.038Z,1.85
2019-05-06T02:45:05.038Z,1.85
2019-05-06T02:46:05.015Z,1.87
2019-05-06T02:47:05.014Z,1.88
2019-05-06T02:48:04.983Z,1.88
2019-05-06T02:49:04.978Z,1.91
2019-05-06T02:50:04.997Z,1.92
2019-05-06T02:51:04.973Z,1.95
2019-05-06T02:52:04.957Z,1.99
2019-05-06T02:53:04.934Z,2.04
2019-05-06T02:54:04.927Z,2.10
2019-05-06T02:55:06.388Z,2.14
2019-05-06T02:56:05.405Z,2.17
2019-05-06T02:57:04.913Z,2.18
2019-05-06T02:58:04.874Z,2.20
2019-05-06T02:59:04.871Z,2.22
2019-05-06T03:00:05.381Z,2.22
2019-05-06T03:01:04.857Z,2.22
2019-05-06T03:02:04.851Z,2.18
2019-05-06T03:03:04.822Z,2.15
2019-05-06T03:04:04.935Z,2.20
2019-05-06T03:05:04.813Z,2.24
2019-05-06T03:06:04.835Z,2.22
2019-05-06T03:07:04.785Z,2.20
2019-05-06T03:08:04.767Z,2.20
2019-05-06T03:09:04.763Z,2.15
2019-05-06T03:10:04.741Z,2.15
2019-05-06T03:11:04.777Z,2.20
2019-05-06T03:12:04.738Z,2.24
2019-05-06T03:13:04.735Z,2.26
2019-05-06T03:14:04.734Z,2.28
2019-05-06T03:15:04.711Z,2.32
2019-05-06T03:16:05.857Z,2.39
2019-05-06T03:17:04.689Z,2.36
2019-05-06T03:18:04.674Z,2.38
2019-05-06T03:19:04.652Z,2.43
2019-05-06T03:20:05.776Z,2.44
2019-05-06T03:21:04.636Z,2.42
2019-05-06T03:22:04.618Z,2.39
2019-05-06T03:23:04.689Z,2.36
2019-05-06T03:24:07.506Z,2.32
2019-05-06T03:25:06.968Z,2.28
2019-05-06T03:26:06.489Z,2.32
2019-05-06T03:27:04.992Z,2.33
2019-05-06T03:28:04.582Z,2.31
2019-05-06T03:29:04.559Z,2.25
2019-05-06T03:30:04.671Z,2.22
2019-05-06T03:31:06.629Z,2.18
2019-05-06T03:32:06.911Z,2.10
2019-05-06T03:34:28.909Z,1.88
2019-05-06T03:35:25.764Z,1.84
2019-05-06T03:36:14.925Z,1.78
2019-05-06T03:37:07.848Z,1.73
2019-05-06T03:38:04.479Z,1.68
2019-05-06T03:39:04.447Z,1.67
2019-05-06T03:40:04.429Z,1.71
2019-05-06T03:41:04.422Z,1.73
2019-05-06T03:42:04.927Z,1.73
2019-05-06T03:43:04.570Z,1.77
2019-05-06T03:44:04.389Z,1.84
2019-05-06T03:45:04.573Z,1.89
2019-05-06T03:46:04.706Z,1.95
2019-05-06T03:47:05.719Z,1.92
2019-05-06T03:48:05.952Z,1.95
2019-05-06T03:49:04.618Z,1.99
2019-05-06T03:50:05.507Z,2.08
2019-05-06T03:51:04.433Z,2.18
2019-05-06T03:52:04.335Z,2.26
2019-05-06T03:53:04.965Z,2.28
2019-05-06T03:54:04.319Z,2.31
2019-05-06T03:55:04.406Z,2.31
2019-05-06T03:56:04.259Z,2.28
2019-05-06T03:57:04.317Z,2.28
2019-05-06T03:58:04.280Z,2.28
2019-05-06T03:59:04.237Z,2.22
2019-05-06T04:00:05.061Z,2.17
2019-05-06T04:01:04.209Z,2.14
2019-05-06T04:02:05.160Z,2.14
2019-05-06T04:03:04.171Z,2.15
2019-05-06T04:04:04.189Z,2.10
2019-05-06T04:05:04.397Z,2.13
2019-05-06T04:06:04.667Z,2.13
2019-05-06T04:07:04.147Z,2.13
2019-05-06T04:08:04.209Z,2.15
2019-05-06T04:09:04.110Z,2.20
2019-05-06T04:10:04.204Z,2.25
2019-05-06T04:11:04.113Z,2.28
2019-05-06T04:12:04.101Z,2.29
2019-05-06T04:13:04.380Z,2.29
2019-05-06T04:14:04.067Z,2.33
2019-05-06T04:15:04.445Z,2.38
2019-05-06T04:16:04.137Z,2.42
2019-05-06T04:17:04.040Z,2.43
2019-05-06T04:18:04.182Z,2.44
2019-05-06T04:19:04.358Z,2.47
2019-05-06T04:20:04.806Z,2.50
2019-05-06T04:21:08.547Z,2.53
2019-05-06T04:22:04.010Z,2.54
2019-05-06T04:23:06.455Z,2.61
2019-05-06T04:24:04.399Z,2.69
2019-05-06T04:25:04.341Z,2.77
2019-05-06T04:26:04.653Z,2.82
2019-05-06T04:27:04.150Z,2.87
2019-05-06T04:28:04.239Z,2.95
2019-05-06T04:29:04.201Z,3.01
2019-05-06T04:30:04.961Z,3.07
2019-05-06T04:31:04.089Z,3.11
2019-05-06T04:32:03.951Z,3.14
2019-05-06T04:33:04.107Z,3.23
2019-05-06T04:34:12.938Z,3.29
2019-05-06T04:35:05.042Z,3.37
2019-05-06T04:36:03.997Z,3.42
2019-05-06T04:37:03.841Z,3.48
2019-05-06T04:38:04.931Z,3.55
2019-05-06T04:39:04.396Z,3.59
2019-05-06T04:40:04.467Z,3.65
2019-05-06T04:41:04.283Z,3.70
2019-05-06T04:42:03.763Z,3.77
2019-05-06T04:43:03.865Z,3.78
2019-05-06T04:44:07.273Z,3.83
2019-05-06T04:45:04.550Z,3.87
2019-05-06T04:46:03.941Z,3.88
2019-05-06T04:47:05.435Z,3.92
2019-05-06T04:48:04.061Z,3.96
2019-05-06T04:49:04.170Z,3.99
2019-05-06T04:50:04.811Z,3.99
2019-05-06T04:51:03.714Z,4.02
2019-05-06T04:52:03.830Z,4.05
2019-05-06T04:53:05.211Z,4.05
2019-05-06T04:54:04.180Z,4.08
2019-05-06T04:55:03.933Z,4.10
2019-05-06T04:56:04.229Z,4.13
2019-05-06T04:57:05.047Z,4.14
2019-05-06T04:58:04.160Z,4.19
2019-05-06T04:59:06.250Z,4.22
2019-05-06T05:00:04.407Z,4.24
2019-05-06T05:01:04.298Z,4.28
2019-05-06T05:02:03.904Z,4.31
2019-05-06T05:03:03.535Z,4.35
2019-05-06T05:04:03.787Z,4.40
2019-05-06T05:05:04.312Z,4.40
2019-05-06T05:06:05.845Z,4.40
2019-05-06T05:07:03.579Z,4.44
2019-05-06T05:08:03.516Z,4.48
2019-05-06T05:09:03.524Z,4.53
2019-05-06T05:10:03.685Z,4.53
2019-05-06T05:11:03.722Z,4.56
2019-05-06T05:12:03.423Z,4.58
2019-05-06T05:13:03.683Z,4.60
2019-05-06T05:14:03.462Z,4.62
2019-05-06T05:15:03.422Z,4.67
2019-05-06T05:16:03.392Z,4.70
2019-05-06T05:17:03.431Z,4.70
2019-05-06T05:18:03.371Z,4.75
2019-05-06T05:19:03.393Z,4.77
2019-05-06T05:20:03.342Z,4.80
2019-05-06T05:21:03.349Z,4.84
2019-05-06T05:22:03.321Z,4.84
2019-05-06T05:23:03.353Z,4.87
2019-05-06T05:24:03.331Z,4.90
2019-05-06T05:25:03.585Z,4.92
2019-05-06T05:26:03.299Z,4.94
2019-05-06T05:27:03.300Z,4.97
2019-05-06T05:28:03.263Z,5.00
2019-05-06T05:29:03.267Z,5.00
2019-05-06T05:30:03.231Z,4.97
2019-05-06T05:31:03.271Z,5.00
2019-05-06T05:32:03.218Z,5.02
2019-05-06T05:33:03.230Z,5.05
2019-05-06T05:34:03.189Z,5.10
2019-05-06T05:35:03.237Z,5.10
2019-05-06T05:36:03.174Z,5.10
2019-05-06T05:37:03.204Z,5.10
2019-05-06T05:38:03.197Z,5.11
2019-05-06T05:39:03.475Z,5.11
2019-05-06T05:40:03.270Z,5.15
2019-05-06T05:41:03.221Z,5.12
2019-05-06T05:42:03.120Z,5.14
2019-05-06T05:43:03.093Z,5.11
2019-05-06T05:44:03.092Z,5.12
2019-05-06T05:45:03.081Z,5.10
2019-05-06T05:46:03.103Z,5.11
2019-05-06T05:47:03.544Z,5.14
2019-05-06T05:48:03.055Z,5.15
2019-05-06T05:49:03.044Z,5.17
2019-05-06T05:50:03.253Z,5.21
2019-05-06T05:51:03.401Z,5.23
2019-05-06T05:52:03.540Z,5.26
2019-05-06T05:53:03.031Z,5.30
2019-05-06T05:54:02.981Z,5.32
2019-05-06T05:55:03.003Z,5.33
2019-05-06T05:56:02.972Z,5.35
2019-05-06T05:57:02.976Z,5.38
2019-05-06T05:58:03.305Z,5.41
2019-05-06T05:59:03.443Z,5.43
2019-05-06T06:00:03.965Z,5.47
2019-05-06T06:01:04.126Z,5.48
2019-05-06T06:02:03.856Z,5.53
2019-05-06T06:03:03.021Z,5.57
2019-05-06T06:04:03.204Z,5.64
2019-05-06T06:05:02.869Z,5.69
2019-05-06T06:06:03.223Z,5.72
2019-05-06T06:07:03.008Z,5.72
2019-05-06T06:08:03.808Z,5.75
2019-05-06T06:09:03.244Z,5.75
2019-05-06T06:10:02.832Z,5.84
2019-05-06T06:11:04.289Z,5.86
2019-05-06T06:12:02.880Z,5.91
2019-05-06T06:13:02.959Z,5.98
2019-05-06T06:14:03.096Z,6.04
2019-05-06T06:15:02.755Z,6.04
2019-05-06T06:16:02.916Z,6.05
2019-05-06T06:17:02.727Z,6.05
2019-05-06T06:18:03.077Z,6.07
2019-05-06T06:19:03.241Z,6.07
2019-05-06T06:20:02.775Z,6.05
2019-05-06T06:21:16.978Z,6.07
2019-05-06T06:22:03.697Z,5.99
2019-05-06T06:23:02.965Z,6.02
2019-05-06T06:24:02.853Z,6.02
2019-05-06T06:25:04.227Z,6.04
2019-05-06T06:26:04.047Z,6.05
2019-05-06T06:27:03.044Z,6.11
2019-05-06T06:28:02.785Z,6.16
2019-05-06T06:29:03.277Z,6.20
2019-05-06T06:30:02.643Z,6.22
2019-05-06T06:31:03.058Z,6.27
2019-05-06T06:32:03.119Z,6.19
2019-05-06T06:33:02.704Z,6.20
2019-05-06T06:34:02.543Z,6.16
2019-05-06T06:35:10.596Z,6.12
2019-05-06T06:36:03.523Z,6.11
2019-05-06T06:37:02.660Z,6.16
2019-05-06T06:38:02.797Z,6.19
2019-05-06T06:39:02.501Z,6.17
2019-05-06T06:40:02.780Z,6.19
2019-05-06T06:41:02.846Z,6.20
2019-05-06T06:42:02.831Z,6.26
2019-05-06T06:43:02.446Z,6.33
2019-05-06T06:44:02.454Z,6.31
2019-05-06T06:45:03.480Z,6.28
2019-05-06T06:46:02.578Z,6.33
2019-05-06T06:47:02.411Z,6.33
2019-05-06T06:48:03.108Z,6.35
2019-05-06T06:49:03.250Z,6.36
2019-05-06T06:50:02.800Z,6.41
2019-05-06T06:51:03.472Z,6.44
2019-05-06T06:52:02.962Z,6.49
2019-05-06T06:53:03.058Z,6.49
2019-05-06T06:54:02.625Z,6.52
2019-05-06T06:55:02.622Z,6.57
2019-05-06T06:56:02.345Z,6.63
2019-05-06T06:57:08.727Z,6.72
2019-05-06T06:58:03.278Z,6.81
2019-05-06T06:59:02.656Z,6.88
2019-05-06T07:00:04.103Z,6.97
2019-05-06T07:01:03.104Z,7.00
2019-05-06T07:02:02.744Z,7.05
2019-05-06T07:03:02.702Z,7.13
2019-05-06T07:04:08.219Z,7.20
2019-05-06T07:05:03.210Z,7.21
2019-05-06T07:06:02.412Z,7.28
2019-05-06T07:07:02.999Z,7.31
2019-05-06T07:08:02.337Z,7.25
2019-05-06T07:09:02.737Z,7.32
2019-05-06T07:10:02.632Z,7.47
2019-05-06T07:11:02.263Z,7.61
2019-05-06T07:12:03.505Z,7.67
2019-05-06T07:13:02.951Z,7.60
2019-05-06T07:14:02.660Z,7.60
2019-05-06T07:15:02.541Z,7.61
2019-05-06T07:16:02.901Z,7.61
2019-05-06T07:17:02.487Z,7.66
2019-05-06T07:18:02.491Z,7.61
2019-05-06T07:19:03.130Z,7.66
2019-05-06T07:20:02.882Z,7.66
2019-05-06T07:21:05.100Z,7.70
2019-05-06T07:22:02.892Z,7.66
2019-05-06T07:23:02.075Z,7.76
2019-05-06T07:24:02.239Z,7.83
2019-05-06T07:25:03.739Z,7.87
2019-05-06T07:26:03.082Z,7.95
2019-05-06T07:27:03.008Z,7.94
2019-05-06T07:28:02.954Z,8.01
2019-05-06T07:29:03.950Z,8.16
2019-05-06T07:30:03.207Z,8.24
2019-05-06T07:31:17.366Z,8.30
2019-05-06T07:32:02.906Z,8.34
2019-05-06T07:33:03.701Z,8.38
2019-05-06T07:34:02.581Z,8.37
2019-05-06T07:35:02.381Z,8.34
2019-05-06T07:36:02.268Z,8.34
2019-05-06T07:37:03.425Z,8.49
2019-05-06T07:38:02.387Z,8.71
2019-05-06T07:39:04.120Z,8.91
2019-05-06T07:40:03.074Z,9.04
2019-05-06T07:41:04.681Z,9.21
2019-05-06T07:42:02.513Z,9.36
2019-05-06T07:43:02.219Z,9.41
2019-05-06T07:44:02.194Z,9.56
2019-05-06T07:45:06.452Z,9.26
2019-05-06T07:46:02.769Z,9.22
2019-05-06T07:47:03.552Z,9.23
2019-05-06T07:48:03.543Z,9.25
2019-05-06T07:49:03.259Z,9.29
2019-05-06T07:50:02.465Z,9.22
2019-05-06T07:51:03.045Z,9.22
2019-05-06T07:52:02.884Z,9.16
2019-05-06T07:53:02.368Z,8.95
2019-05-06T07:54:02.787Z,9.16
2019-05-06T07:55:02.614Z,9.19
2019-05-06T07:56:03.639Z,9.26
2019-05-06T07:57:02.413Z,9.46
2019-05-06T07:58:02.933Z,9.56
2019-05-06T07:59:03.224Z,9.66
2019-05-06T08:00:03.421Z,9.77
2019-05-06T08:01:02.739Z,10.09
2019-05-06T08:02:02.248Z,10.17
2019-05-06T08:03:02.506Z,10.16
2019-05-06T08:04:02.552Z,10.34
2019-05-06T08:05:02.667Z,10.49
2019-05-06T08:06:02.673Z,10.38
2019-05-06T08:07:03.196Z,10.26
2019-05-06T08:08:03.689Z,10.34
2019-05-06T08:09:03.175Z,10.37
2019-05-06T08:10:02.141Z,10.40
2019-05-06T08:11:02.657Z,10.68
2019-05-06T08:12:02.809Z,10.93
2019-05-06T08:13:02.686Z,10.40
2019-05-06T08:14:02.205Z,9.87
2019-05-06T08:15:05.005Z,9.41
2019-05-06T08:16:02.245Z,9.18
2019-05-06T08:17:02.266Z,9.11
2019-05-06T08:18:03.320Z,8.99
2019-05-06T08:19:02.744Z,8.82
2019-05-06T08:20:02.514Z,8.73
2019-05-06T08:21:02.421Z,8.69
2019-05-06T08:22:02.753Z,8.67
2019-05-06T08:23:02.120Z,8.71
2019-05-06T08:24:02.699Z,8.79
2019-05-06T08:25:03.396Z,10.07
2019-05-06T08:26:10.038Z,9.87
2019-05-06T08:27:02.892Z,9.95
2019-05-06T08:28:02.295Z,9.50
2019-05-06T08:29:02.816Z,9.25
2019-05-06T08:30:02.445Z,8.97
2019-05-06T08:31:02.419Z,8.78
2019-05-06T08:32:02.905Z,8.71
2019-05-06T08:33:02.249Z,8.71
2019-05-06T08:34:02.690Z,8.91
2019-05-06T08:35:03.297Z,10.90
2019-05-06T08:36:08.938Z,11.33
2019-05-06T08:37:02.488Z,11.78
2019-05-06T08:38:02.358Z,11.57
2019-05-06T08:39:02.730Z,10.63
2019-05-06T08:40:03.170Z,10.23
2019-05-06T08:41:02.733Z,10.17
2019-05-06T08:42:02.678Z,10.10
2019-05-06T08:43:02.219Z,10.09
2019-05-06T08:44:02.584Z,10.09
2019-05-06T08:45:02.231Z,10.22
2019-05-06T08:46:03.158Z,11.83
2019-05-06T08:47:02.483Z,13.15
2019-05-06T08:48:02.948Z,12.31
2019-05-06T08:49:03.124Z,12.46
2019-05-06T08:50:02.430Z,14.26
2019-05-06T08:51:02.702Z,15.10
2019-05-06T08:52:02.424Z,14.97
2019-05-06T08:53:04.835Z,15.76
2019-05-06T08:54:03.089Z,15.00
2019-05-06T08:55:04.320Z,14.07
2019-05-06T08:56:01.945Z,12.60
2019-05-06T08:57:02.596Z,12.28
2019-05-06T08:58:02.995Z,11.86
2019-05-06T08:59:03.019Z,11.63
2019-05-06T09:00:02.904Z,11.63
2019-05-06T09:01:02.821Z,11.29
2019-05-06T09:02:03.056Z,11.33
2019-05-06T09:03:04.027Z,11.63
2019-05-06T09:04:11.445Z,11.02
2019-05-06T09:05:02.952Z,10.71
2019-05-06T09:06:03.029Z,10.33
2019-05-06T09:07:02.745Z,10.07
2019-05-06T09:08:03.237Z,9.95
2019-05-06T09:09:02.375Z,9.92
2019-05-06T09:10:02.535Z,9.86
2019-05-06T09:11:02.949Z,9.64
2019-05-06T09:12:02.679Z,9.51
2019-05-06T09:13:02.014Z,9.41
2019-05-06T09:14:03.140Z,9.39
2019-05-06T09:15:03.257Z,9.59
2019-05-06T09:16:02.460Z,10.75
2019-05-06T09:17:02.619Z,11.91
2019-05-06T09:18:02.814Z,13.41
2019-05-06T09:19:04.310Z,13.63
2019-05-06T09:20:02.626Z,13.27
2019-05-06T09:21:02.836Z,14.03
2019-05-06T09:22:02.479Z,15.39
2019-05-06T09:23:04.213Z,15.22
2019-05-06T09:24:02.232Z,15.28
2019-05-06T09:25:02.448Z,16.13
2019-05-06T09:26:02.657Z,15.84
2019-05-06T09:27:02.824Z,14.54
2019-05-06T09:28:02.532Z,13.53
2019-05-06T09:29:02.299Z,13.11
2019-05-06T09:30:02.848Z,13.65
2019-05-06T09:31:02.233Z,13.39
2019-05-06T09:32:01.818Z,14.43
2019-05-06T09:33:02.511Z,15.14
2019-05-06T09:34:02.795Z,14.04
2019-05-06T09:35:02.742Z,13.03
2019-05-06T09:36:02.808Z,12.24
2019-05-06T09:37:03.373Z,11.70
2019-05-06T09:38:02.191Z,12.78
2019-05-06T09:39:02.288Z,13.52
2019-05-06T09:40:02.774Z,14.69
2019-05-06T09:41:00.507Z,15.40
2019-05-06T09:42:02.263Z,15.54
2019-05-06T09:43:04.446Z,15.94
2019-05-06T09:44:02.929Z,16.50
2019-05-06T09:45:02.250Z,16.90
2019-05-06T09:46:02.391Z,17.16
2019-05-06T09:47:02.387Z,17.11
2019-05-06T09:48:00.455Z,16.90
2019-05-06T09:49:00.405Z,16.66
2019-05-06T09:50:02.799Z,15.52
2019-05-06T09:51:02.754Z,15.03
2019-05-06T09:52:02.476Z,15.27
2019-05-06T09:53:02.490Z,15.46
2019-05-06T09:54:03.784Z,15.98
2019-05-06T09:55:03.184Z,16.54
2019-05-06T09:56:00.364Z,17.30
2019-05-06T09:57:02.256Z,17.54
2019-05-06T09:58:03.157Z,17.22
2019-05-06T09:59:02.201Z,17.30
2019-05-06T10:00:04.395Z,17.48
2019-05-06T10:01:02.517Z,18.13
2019-05-06T10:02:00.277Z,18.47
2019-05-06T10:03:09.583Z,19.11
2019-05-06T10:04:03.294Z,19.48
2019-05-06T10:05:03.325Z,20.25
2019-05-06T10:06:02.525Z,20.32
2019-05-06T10:07:02.502Z,17.63
2019-05-06T10:08:00.209Z,14.54
2019-05-06T10:09:04.229Z,13.23
2019-05-06T10:10:00.212Z,12.55
2019-05-06T10:11:00.202Z,12.13
2019-05-06T10:12:02.055Z,12.03
2019-05-06T10:13:02.551Z,11.81
2019-05-06T10:14:00.142Z,11.51
2019-05-06T10:15:02.936Z,11.43
2019-05-06T10:16:02.735Z,11.37
2019-05-06T10:17:04.175Z,11.30
2019-05-06T10:18:00.096Z,11.59
2019-05-06T10:19:02.443Z,12.73
2019-05-06T10:20:02.599Z,13.62
2019-05-06T10:21:00.056Z,14.33
2019-05-06T10:22:00.063Z,14.79
2019-05-06T10:23:00.052Z,15.04
2019-05-06T10:24:02.208Z,15.49
2019-05-06T10:25:00.044Z,15.54
2019-05-06T10:26:00.018Z,15.72
2019-05-06T10:27:00.007Z,15.39
2019-05-06T10:28:02.606Z,15.36
2019-05-06T10:28:59.978Z,15.31
2019-05-06T10:29:59.969Z,15.17
2019-05-06T10:31:02.031Z,15.35
2019-05-06T10:31:59.959Z,15.10
2019-05-06T10:33:01.993Z,15.39
2019-05-06T10:33:59.957Z,14.62
2019-05-06T10:34:59.910Z,14.55
2019-05-06T10:36:02.461Z,14.54
2019-05-06T10:37:11.484Z,14.32
2019-05-06T10:38:02.832Z,14.30
2019-05-06T10:39:02.109Z,14.30
2019-05-06T10:39:59.869Z,14.15
2019-05-06T10:41:05.108Z,13.89
2019-05-06T10:42:00.841Z,13.86
2019-05-06T10:42:59.829Z,13.37
2019-05-06T10:43:59.859Z,13.09
2019-05-06T10:45:01.684Z,12.83
2019-05-06T10:46:01.802Z,12.53
2019-05-06T10:46:59.779Z,13.05
2019-05-06T10:47:59.780Z,13.42
2019-05-06T10:49:02.415Z,13.86
2019-05-06T10:50:02.091Z,14.18
2019-05-06T10:50:59.757Z,13.77
2019-05-06T10:51:59.738Z,13.65
2019-05-06T10:52:59.717Z,13.67
2019-05-06T10:53:59.727Z,13.38
2019-05-06T10:54:59.698Z,13.05
2019-05-06T10:56:02.114Z,13.22
2019-05-06T10:57:02.112Z,13.50
2019-05-06T10:58:02.393Z,13.52
2019-05-06T10:58:59.661Z,13.11
2019-05-06T10:59:59.655Z,12.86
2019-05-06T11:00:59.648Z,12.72
2019-05-06T11:01:59.619Z,12.78
2019-05-06T11:02:59.609Z,12.75
2019-05-06T11:03:59.610Z,12.46
2019-05-06T11:05:02.533Z,12.00
2019-05-06T11:05:59.581Z,11.91
2019-05-06T11:06:59.567Z,11.75
2019-05-06T11:07:59.547Z,11.65
2019-05-06T11:08:59.554Z,11.52
2019-05-06T11:09:59.548Z,11.32
2019-05-06T11:11:14.091Z,11.05
2019-05-06T11:12:00.515Z,11.05
2019-05-06T11:12:59.501Z,11.00
2019-05-06T11:13:59.507Z,11.08
2019-05-06T11:14:59.488Z,11.11
2019-05-06T11:15:59.489Z,11.11
2019-05-06T11:16:59.457Z,11.14
2019-05-06T11:17:59.442Z,11.22
2019-05-06T11:18:59.449Z,11.18
2019-05-06T11:19:59.427Z,11.19
2019-05-06T11:20:59.432Z,11.25
2019-05-06T11:21:59.404Z,11.29
2019-05-06T11:22:59.391Z,11.11
2019-05-06T11:23:59.381Z,11.25
2019-05-06T11:24:59.370Z,11.32
2019-05-06T11:25:59.379Z,11.77
2019-05-06T11:26:59.370Z,12.21
2019-05-06T11:27:59.373Z,12.22
2019-05-06T11:28:59.341Z,12.86
2019-05-06T11:29:59.348Z,13.19
2019-05-06T11:30:59.313Z,13.53
2019-05-06T11:31:59.309Z,13.47
2019-05-06T11:32:59.294Z,13.27
2019-05-06T11:33:59.323Z,13.49
2019-05-06T11:34:59.255Z,13.71
2019-05-06T11:35:59.262Z,13.99
2019-05-06T11:36:59.251Z,13.93
2019-05-06T11:37:59.239Z,13.71
2019-05-06T11:38:59.251Z,13.77
2019-05-06T11:39:59.213Z,13.52
2019-05-06T11:40:59.193Z,13.37
2019-05-06T11:42:14.840Z,13.20
2019-05-06T11:43:00.202Z,12.97
2019-05-06T11:43:59.163Z,12.94
2019-05-06T11:44:59.158Z,12.68
2019-05-06T11:45:59.143Z,12.35
2019-05-06T11:46:59.130Z,11.83
2019-05-06T11:47:59.132Z,11.62
2019-05-06T11:48:59.137Z,11.25
2019-05-06T11:49:59.109Z,11.10
2019-05-06T11:50:59.112Z,10.92
2019-05-06T11:51:59.076Z,10.76
2019-05-06T11:52:59.064Z,10.60
2019-05-06T11:53:59.080Z,10.41
2019-05-06T11:54:59.065Z,10.19
2019-05-06T11:55:59.054Z,9.91
2019-05-06T11:56:59.025Z,9.65
2019-05-06T11:57:59.015Z,9.48
2019-05-06T11:58:59.006Z,9.37
2019-05-06T11:59:58.993Z,9.29
2019-05-06T12:00:58.992Z,9.11
2019-05-06T12:01:58.965Z,9.13
2019-05-06T12:02:58.956Z,9.06
2019-05-06T12:03:58.990Z,9.02
2019-05-06T12:04:58.942Z,9.06
2019-05-06T12:05:58.916Z,9.10
2019-05-06T12:07:10.128Z,9.18
2019-05-06T12:08:04.510Z,9.22
2019-05-06T12:08:59.920Z,9.14
2019-05-06T12:09:58.887Z,9.19
2019-05-06T12:10:58.865Z,9.25
2019-05-06T12:11:58.869Z,9.32
2019-05-06T12:12:58.869Z,9.37
2019-05-06T12:13:58.864Z,9.56
2019-05-06T12:14:58.843Z,9.68
2019-05-06T12:15:58.811Z,9.79
2019-05-06T12:16:58.804Z,9.98
2019-05-06T12:17:58.793Z,10.22
2019-05-06T12:18:59.899Z,10.44
2019-05-06T12:19:58.779Z,10.67
2019-05-06T12:21:09.016Z,10.84
2019-05-06T12:21:59.757Z,10.97
2019-05-06T12:22:58.754Z,11.26
2019-05-06T12:23:58.741Z,11.47
2019-05-06T12:24:58.730Z,11.50
2019-05-06T12:25:58.715Z,11.54
2019-05-06T12:26:58.705Z,11.59
2019-05-06T12:27:58.679Z,11.41
2019-05-06T12:28:58.701Z,11.47
2019-05-06T12:29:58.677Z,11.35
2019-05-06T12:30:58.670Z,11.22
2019-05-06T12:31:58.644Z,10.84
2019-05-06T12:32:58.638Z,10.71
2019-05-06T12:33:58.648Z,10.41
2019-05-06T12:34:58.637Z,10.15
2019-05-06T12:35:58.630Z,9.91
2019-05-06T12:36:58.615Z,9.82
2019-05-06T12:37:58.567Z,9.89
2019-05-06T12:38:58.560Z,9.97
2019-05-06T12:39:58.585Z,9.99
2019-05-06T12:41:00.059Z,9.98
2019-05-06T12:41:58.533Z,10.04
2019-05-06T12:42:58.519Z,9.95
2019-05-06T12:43:58.517Z,9.97
2019-05-06T12:44:58.501Z,9.99
2019-05-06T12:45:58.487Z,9.97
2019-05-06T12:47:00.062Z,9.99
2019-05-06T12:47:58.475Z,9.89
2019-05-06T12:48:58.464Z,9.87
2019-05-06T12:49:58.457Z,9.87
2019-05-06T12:50:58.474Z,9.84
2019-05-06T12:51:58.421Z,9.83
2019-05-06T12:52:58.412Z,9.79
2019-05-06T12:53:58.399Z,9.79
2019-05-06T12:55:16.406Z,9.73
2019-05-06T12:55:59.387Z,9.74
2019-05-06T12:56:58.366Z,9.69
2019-05-06T12:57:58.360Z,9.68
2019-05-06T12:58:58.341Z,9.73
2019-05-06T12:59:58.361Z,9.79
2019-05-06T13:00:58.336Z,9.82
2019-05-06T13:01:58.312Z,9.76
2019-05-06T13:02:58.318Z,9.72
2019-05-06T13:03:58.295Z,9.73
2019-05-06T13:05:00.836Z,9.73
2019-05-06T13:05:59.270Z,9.62
2019-05-06T13:06:58.291Z,9.72
2019-05-06T13:07:58.251Z,9.83
2019-05-06T13:09:01.671Z,9.86
2019-05-06T13:09:59.231Z,9.84
2019-05-06T13:10:58.221Z,9.83